sensor_id;sensor_type;location;lat;lon;timestamp;P1;durP1;ratioP1;P2;durP2;ratioP2
29662;SDS011;16578;53.266;7.920;2022-12-10T00:01:44;63.30;;;33.38;;
29662;SDS011;16578;53.266;7.920;2022-12-10T00:04:10;66.28;;;34.17;;
29662;SDS011;16578;53.266;7.920;2022-12-10T00:06:37;63.53;;;32.65;;
29662;SDS011;16578;53.266;7.920;2022-12-10T00:09:05;56.38;;;31.17;;
29662;SDS011;16578;53.266;7.920;2022-12-10T00:11:32;58.42;;;31.08;;
29662;SDS011;16578;53.266;7.920;2022-12-10T00:13:58;55.72;;;29.52;;
29662;SDS011;16578;53.266;7.920;2022-12-10T00:16:24;58.85;;;32.50;;
29662;SDS011;16578;53.266;7.920;2022-12-10T00:18:51;60.60;;;30.20;;
29662;SDS011;16578;53.266;7.920;2022-12-10T00:21:22;55.83;;;30.15;;
29662;SDS011;16578;53.266;7.920;2022-12-10T00:23:50;60.17;;;32.72;;
29662;SDS011;16578;53.266;7.920;2022-12-10T00:26:20;65.35;;;32.30;;
29662;SDS011;16578;53.266;7.920;2022-12-10T00:28:47;57.40;;;32.30;;
29662;SDS011;16578;53.266;7.920;2022-12-10T00:31:14;63.10;;;33.30;;
29662;SDS011;16578;53.266;7.920;2022-12-10T00:33:45;62.70;;;31.50;;
29662;SDS011;16578;53.266;7.920;2022-12-10T00:36:13;63.10;;;32.45;;
29662;SDS011;16578;53.266;7.920;2022-12-10T00:41:06;58.15;;;27.40;;
29662;SDS011;16578;53.266;7.920;2022-12-10T00:43:32;59.17;;;29.20;;
29662;SDS011;16578;53.266;7.920;2022-12-10T00:45:57;59.42;;;30.27;;
29662;SDS011;16578;53.266;7.920;2022-12-10T00:48:23;58.33;;;30.38;;
29662;SDS011;16578;53.266;7.920;2022-12-10T00:53:46;57.10;;;29.10;;
29662;SDS011;16578;53.266;7.920;2022-12-10T00:56:13;55.33;;;30.50;;
29662;SDS011;16578;53.266;7.920;2022-12-10T00:58:41;56.78;;;29.45;;
29662;SDS011;16578;53.266;7.920;2022-12-10T01:01:08;59.20;;;31.33;;
29662;SDS011;16578;53.266;7.920;2022-12-10T01:03:35;58.50;;;30.83;;
29662;SDS011;16578;53.266;7.920;2022-12-10T01:06:11;52.13;;;28.75;;
29662;SDS011;16578;53.266;7.920;2022-12-10T01:08:42;62.50;;;31.05;;
29662;SDS011;16578;53.266;7.920;2022-12-10T01:11:08;57.50;;;30.50;;
29662;SDS011;16578;53.266;7.920;2022-12-10T01:13:35;56.88;;;29.63;;
29662;SDS011;16578;53.266;7.920;2022-12-10T01:16:04;60.30;;;30.90;;
29662;SDS011;16578;53.266;7.920;2022-12-10T01:18:31;62.05;;;32.60;;
29662;SDS011;16578;53.266;7.920;2022-12-10T01:21:00;57.75;;;30.10;;
29662;SDS011;16578;53.266;7.920;2022-12-10T01:23:33;60.05;;;30.45;;
29662;SDS011;16578;53.266;7.920;2022-12-10T01:26:01;60.08;;;30.30;;
29662;SDS011;16578;53.266;7.920;2022-12-10T01:28:29;63.75;;;31.25;;
29662;SDS011;16578;53.266;7.920;2022-12-10T01:31:06;62.00;;;32.17;;
29662;SDS011;16578;53.266;7.920;2022-12-10T01:33:38;66.47;;;32.45;;
29662;SDS011;16578;53.266;7.920;2022-12-10T01:36:09;62.85;;;32.67;;
29662;SDS011;16578;53.266;7.920;2022-12-10T01:38:39;60.90;;;32.20;;
29662;SDS011;16578;53.266;7.920;2022-12-10T01:41:06;61.10;;;32.03;;
29662;SDS011;16578;53.266;7.920;2022-12-10T01:46:18;65.80;;;33.08;;
29662;SDS011;16578;53.266;7.920;2022-12-10T01:48:44;62.33;;;31.42;;
29662;SDS011;16578;53.266;7.920;2022-12-10T01:51:10;59.72;;;30.52;;
29662;SDS011;16578;53.266;7.920;2022-12-10T01:53:38;57.22;;;29.30;;
29662;SDS011;16578;53.266;7.920;2022-12-10T01:56:04;65.22;;;32.50;;
29662;SDS011;16578;53.266;7.920;2022-12-10T01:58:29;62.95;;;32.47;;
29662;SDS011;16578;53.266;7.920;2022-12-10T02:00:58;60.58;;;30.75;;
29662;SDS011;16578;53.266;7.920;2022-12-10T02:03:43;59.55;;;30.63;;
29662;SDS011;16578;53.266;7.920;2022-12-10T02:06:45;61.95;;;30.48;;
29662;SDS011;16578;53.266;7.920;2022-12-10T02:17:36;53.03;;;28.20;;
29662;SDS011;16578;53.266;7.920;2022-12-10T02:20:08;50.40;;;27.33;;
29662;SDS011;16578;53.266;7.920;2022-12-10T02:22:48;57.87;;;31.03;;
29662;SDS011;16578;53.266;7.920;2022-12-10T02:25:15;54.83;;;29.65;;
29662;SDS011;16578;53.266;7.920;2022-12-10T02:27:48;55.92;;;29.60;;
29662;SDS011;16578;53.266;7.920;2022-12-10T02:30:34;61.72;;;30.10;;
29662;SDS011;16578;53.266;7.920;2022-12-10T02:33:01;56.22;;;30.23;;
29662;SDS011;16578;53.266;7.920;2022-12-10T02:35:30;56.72;;;29.50;;
29662;SDS011;16578;53.266;7.920;2022-12-10T02:38:00;57.60;;;29.67;;
29662;SDS011;16578;53.266;7.920;2022-12-10T02:40:36;58.72;;;29.17;;
29662;SDS011;16578;53.266;7.920;2022-12-10T02:43:04;59.58;;;29.50;;
29662;SDS011;16578;53.266;7.920;2022-12-10T02:45:32;54.83;;;29.25;;
29662;SDS011;16578;53.266;7.920;2022-12-10T02:47:59;58.20;;;27.92;;
29662;SDS011;16578;53.266;7.920;2022-12-10T02:50:27;55.20;;;28.17;;
29662;SDS011;16578;53.266;7.920;2022-12-10T02:52:53;54.53;;;29.10;;
29662;SDS011;16578;53.266;7.920;2022-12-10T02:55:19;56.00;;;28.45;;
29662;SDS011;16578;53.266;7.920;2022-12-10T03:00:29;59.97;;;29.08;;
29662;SDS011;16578;53.266;7.920;2022-12-10T03:05:44;53.58;;;27.77;;
29662;SDS011;16578;53.266;7.920;2022-12-10T03:08:23;55.47;;;28.85;;
29662;SDS011;16578;53.266;7.920;2022-12-10T03:13:23;56.88;;;28.25;;
29662;SDS011;16578;53.266;7.920;2022-12-10T03:15:54;56.78;;;29.67;;
29662;SDS011;16578;53.266;7.920;2022-12-10T03:18:21;55.65;;;28.58;;
29662;SDS011;16578;53.266;7.920;2022-12-10T03:20:50;57.47;;;29.73;;
29662;SDS011;16578;53.266;7.920;2022-12-10T03:23:17;66.43;;;32.22;;
29662;SDS011;16578;53.266;7.920;2022-12-10T03:25:44;56.63;;;30.58;;
29662;SDS011;16578;53.266;7.920;2022-12-10T03:28:13;60.53;;;30.42;;
29662;SDS011;16578;53.266;7.920;2022-12-10T03:30:40;54.93;;;29.43;;
29662;SDS011;16578;53.266;7.920;2022-12-10T03:33:08;55.30;;;29.33;;
29662;SDS011;16578;53.266;7.920;2022-12-10T03:35:34;61.28;;;31.30;;
29662;SDS011;16578;53.266;7.920;2022-12-10T03:38:00;58.13;;;30.40;;
29662;SDS011;16578;53.266;7.920;2022-12-10T03:40:26;61.45;;;30.83;;
29662;SDS011;16578;53.266;7.920;2022-12-10T03:42:52;63.60;;;31.75;;
29662;SDS011;16578;53.266;7.920;2022-12-10T03:45:18;58.90;;;30.48;;
29662;SDS011;16578;53.266;7.920;2022-12-10T03:47:43;55.25;;;28.80;;
29662;SDS011;16578;53.266;7.920;2022-12-10T03:50:09;56.50;;;29.20;;
29662;SDS011;16578;53.266;7.920;2022-12-10T03:52:35;58.70;;;30.05;;
29662;SDS011;16578;53.266;7.920;2022-12-10T03:55:01;58.13;;;32.05;;
29662;SDS011;16578;53.266;7.920;2022-12-10T03:57:27;59.78;;;31.02;;
29662;SDS011;16578;53.266;7.920;2022-12-10T03:59:52;60.60;;;31.40;;
29662;SDS011;16578;53.266;7.920;2022-12-10T04:02:18;57.58;;;30.10;;
29662;SDS011;16578;53.266;7.920;2022-12-10T04:04:43;58.08;;;30.30;;
29662;SDS011;16578;53.266;7.920;2022-12-10T04:07:09;60.78;;;32.28;;
29662;SDS011;16578;53.266;7.920;2022-12-10T04:09:34;58.08;;;29.13;;
29662;SDS011;16578;53.266;7.920;2022-12-10T04:12:00;58.60;;;29.05;;
29662;SDS011;16578;53.266;7.920;2022-12-10T04:14:26;49.85;;;28.27;;
29662;SDS011;16578;53.266;7.920;2022-12-10T04:17:11;56.83;;;28.40;;
29662;SDS011;16578;53.266;7.920;2022-12-10T04:19:37;62.55;;;30.98;;
29662;SDS011;16578;53.266;7.920;2022-12-10T04:22:02;57.75;;;29.77;;
29662;SDS011;16578;53.266;7.920;2022-12-10T04:24:47;55.83;;;29.10;;
29662;SDS011;16578;53.266;7.920;2022-12-10T04:27:51;56.15;;;29.08;;
29662;SDS011;16578;53.266;7.920;2022-12-10T04:30:16;57.88;;;29.17;;
29662;SDS011;16578;53.266;7.920;2022-12-10T04:32:42;61.88;;;30.95;;
29662;SDS011;16578;53.266;7.920;2022-12-10T04:35:08;54.40;;;27.83;;
29662;SDS011;16578;53.266;7.920;2022-12-10T04:37:34;57.92;;;30.10;;
29662;SDS011;16578;53.266;7.920;2022-12-10T04:39:59;57.92;;;29.92;;
29662;SDS011;16578;53.266;7.920;2022-12-10T04:42:25;55.22;;;29.33;;
29662;SDS011;16578;53.266;7.920;2022-12-10T04:44:51;55.92;;;29.50;;
29662;SDS011;16578;53.266;7.920;2022-12-10T04:47:16;54.63;;;30.17;;
29662;SDS011;16578;53.266;7.920;2022-12-10T04:49:42;61.40;;;30.40;;
29662;SDS011;16578;53.266;7.920;2022-12-10T04:52:08;60.88;;;32.00;;
29662;SDS011;16578;53.266;7.920;2022-12-10T04:54:37;62.05;;;29.73;;
29662;SDS011;16578;53.266;7.920;2022-12-10T04:57:03;55.05;;;29.42;;
29662;SDS011;16578;53.266;7.920;2022-12-10T04:59:29;57.92;;;30.30;;
29662;SDS011;16578;53.266;7.920;2022-12-10T05:01:54;59.67;;;31.08;;
29662;SDS011;16578;53.266;7.920;2022-12-10T05:04:20;58.83;;;29.88;;
29662;SDS011;16578;53.266;7.920;2022-12-10T05:06:47;59.97;;;30.30;;
29662;SDS011;16578;53.266;7.920;2022-12-10T05:09:14;50.75;;;28.88;;
29662;SDS011;16578;53.266;7.920;2022-12-10T05:11:39;57.38;;;28.65;;
29662;SDS011;16578;53.266;7.920;2022-12-10T05:14:05;60.72;;;30.02;;
29662;SDS011;16578;53.266;7.920;2022-12-10T05:16:32;60.20;;;29.98;;
29662;SDS011;16578;53.266;7.920;2022-12-10T05:18:59;52.78;;;28.98;;
29662;SDS011;16578;53.266;7.920;2022-12-10T05:21:26;57.15;;;29.25;;
29662;SDS011;16578;53.266;7.920;2022-12-10T05:24:11;56.53;;;30.88;;
29662;SDS011;16578;53.266;7.920;2022-12-10T05:26:38;63.05;;;31.85;;
29662;SDS011;16578;53.266;7.920;2022-12-10T05:29:04;54.30;;;29.58;;
29662;SDS011;16578;53.266;7.920;2022-12-10T05:31:30;54.58;;;29.65;;
29662;SDS011;16578;53.266;7.920;2022-12-10T05:33:56;53.95;;;28.30;;
29662;SDS011;16578;53.266;7.920;2022-12-10T05:36:24;54.53;;;29.95;;
29662;SDS011;16578;53.266;7.920;2022-12-10T05:38:53;51.13;;;27.38;;
29662;SDS011;16578;53.266;7.920;2022-12-10T05:41:21;51.30;;;27.75;;
29662;SDS011;16578;53.266;7.920;2022-12-10T05:43:49;58.40;;;28.23;;
29662;SDS011;16578;53.266;7.920;2022-12-10T05:46:16;56.50;;;29.45;;
29662;SDS011;16578;53.266;7.920;2022-12-10T05:48:43;56.15;;;30.20;;
29662;SDS011;16578;53.266;7.920;2022-12-10T05:51:10;55.97;;;28.95;;
29662;SDS011;16578;53.266;7.920;2022-12-10T05:53:37;52.35;;;28.92;;
29662;SDS011;16578;53.266;7.920;2022-12-10T05:56:07;52.72;;;29.10;;
29662;SDS011;16578;53.266;7.920;2022-12-10T05:58:38;54.97;;;30.17;;
29662;SDS011;16578;53.266;7.920;2022-12-10T06:01:09;53.33;;;28.73;;
29662;SDS011;16578;53.266;7.920;2022-12-10T06:03:36;53.17;;;28.27;;
29662;SDS011;16578;53.266;7.920;2022-12-10T06:06:02;54.08;;;29.70;;
29662;SDS011;16578;53.266;7.920;2022-12-10T06:08:28;54.92;;;29.88;;
29662;SDS011;16578;53.266;7.920;2022-12-10T06:10:54;55.50;;;30.33;;
29662;SDS011;16578;53.266;7.920;2022-12-10T06:13:22;54.63;;;29.35;;
29662;SDS011;16578;53.266;7.920;2022-12-10T06:15:47;53.70;;;28.55;;
29662;SDS011;16578;53.266;7.920;2022-12-10T06:18:13;58.00;;;30.20;;
29662;SDS011;16578;53.266;7.920;2022-12-10T06:20:39;56.22;;;29.65;;
29662;SDS011;16578;53.266;7.920;2022-12-10T06:23:04;53.33;;;28.38;;
29662;SDS011;16578;53.266;7.920;2022-12-10T06:25:31;49.17;;;27.23;;
29662;SDS011;16578;53.266;7.920;2022-12-10T06:27:56;53.85;;;27.55;;
29662;SDS011;16578;53.266;7.920;2022-12-10T06:30:22;59.13;;;30.67;;
29662;SDS011;16578;53.266;7.920;2022-12-10T06:32:48;58.83;;;30.23;;
29662;SDS011;16578;53.266;7.920;2022-12-10T06:35:13;57.55;;;30.55;;
29662;SDS011;16578;53.266;7.920;2022-12-10T06:37:39;53.17;;;29.50;;
29662;SDS011;16578;53.266;7.920;2022-12-10T06:40:04;53.50;;;30.17;;
29662;SDS011;16578;53.266;7.920;2022-12-10T06:42:31;56.53;;;30.17;;
29662;SDS011;16578;53.266;7.920;2022-12-10T06:44:56;60.90;;;30.73;;
29662;SDS011;16578;53.266;7.920;2022-12-10T06:47:22;56.55;;;30.30;;
29662;SDS011;16578;53.266;7.920;2022-12-10T06:49:48;60.78;;;30.95;;
29662;SDS011;16578;53.266;7.920;2022-12-10T06:52:13;58.45;;;31.15;;
29662;SDS011;16578;53.266;7.920;2022-12-10T06:54:39;59.95;;;30.90;;
29662;SDS011;16578;53.266;7.920;2022-12-10T06:57:04;56.95;;;32.88;;
29662;SDS011;16578;53.266;7.920;2022-12-10T06:59:30;57.90;;;32.00;;
29662;SDS011;16578;53.266;7.920;2022-12-10T07:01:56;64.25;;;33.00;;
29662;SDS011;16578;53.266;7.920;2022-12-10T07:04:22;66.32;;;33.55;;
29662;SDS011;16578;53.266;7.920;2022-12-10T07:06:47;60.55;;;34.45;;
29662;SDS011;16578;53.266;7.920;2022-12-10T07:09:13;68.03;;;36.33;;
29662;SDS011;16578;53.266;7.920;2022-12-10T07:11:38;67.68;;;36.85;;
29662;SDS011;16578;53.266;7.920;2022-12-10T07:14:04;67.53;;;35.45;;
29662;SDS011;16578;53.266;7.920;2022-12-10T07:16:30;66.18;;;34.10;;
29662;SDS011;16578;53.266;7.920;2022-12-10T07:18:58;62.55;;;33.05;;
29662;SDS011;16578;53.266;7.920;2022-12-10T07:21:26;56.03;;;28.85;;
29662;SDS011;16578;53.266;7.920;2022-12-10T07:23:55;57.88;;;31.33;;
29662;SDS011;16578;53.266;7.920;2022-12-10T07:26:23;60.85;;;33.72;;
29662;SDS011;16578;53.266;7.920;2022-12-10T07:28:50;57.05;;;31.60;;
29662;SDS011;16578;53.266;7.920;2022-12-10T07:31:16;61.80;;;33.28;;
29662;SDS011;16578;53.266;7.920;2022-12-10T07:33:41;58.20;;;31.98;;
29662;SDS011;16578;53.266;7.920;2022-12-10T07:36:08;56.42;;;30.85;;
29662;SDS011;16578;53.266;7.920;2022-12-10T07:38:35;57.65;;;30.98;;
29662;SDS011;16578;53.266;7.920;2022-12-10T07:41:05;57.83;;;31.10;;
29662;SDS011;16578;53.266;7.920;2022-12-10T07:43:33;59.25;;;32.60;;
29662;SDS011;16578;53.266;7.920;2022-12-10T07:46:19;61.35;;;33.08;;
29662;SDS011;16578;53.266;7.920;2022-12-10T07:48:53;58.15;;;32.80;;
29662;SDS011;16578;53.266;7.920;2022-12-10T07:51:20;63.67;;;35.53;;
29662;SDS011;16578;53.266;7.920;2022-12-10T07:53:46;69.85;;;39.28;;
29662;SDS011;16578;53.266;7.920;2022-12-10T07:56:12;67.47;;;35.45;;
29662;SDS011;16578;53.266;7.920;2022-12-10T07:58:41;69.70;;;40.70;;
29662;SDS011;16578;53.266;7.920;2022-12-10T08:01:11;67.40;;;37.75;;
29662;SDS011;16578;53.266;7.920;2022-12-10T08:03:38;64.03;;;34.00;;
29662;SDS011;16578;53.266;7.920;2022-12-10T08:06:05;61.28;;;33.67;;
29662;SDS011;16578;53.266;7.920;2022-12-10T08:08:32;62.80;;;33.47;;
29662;SDS011;16578;53.266;7.920;2022-12-10T08:10:59;63.08;;;34.25;;
29662;SDS011;16578;53.266;7.920;2022-12-10T08:13:25;63.90;;;34.85;;
29662;SDS011;16578;53.266;7.920;2022-12-10T08:15:51;72.25;;;38.67;;
29662;SDS011;16578;53.266;7.920;2022-12-10T08:18:16;61.65;;;32.88;;
29662;SDS011;16578;53.266;7.920;2022-12-10T08:20:42;61.35;;;33.38;;
29662;SDS011;16578;53.266;7.920;2022-12-10T08:23:07;66.28;;;37.33;;
29662;SDS011;16578;53.266;7.920;2022-12-10T08:25:33;58.47;;;32.83;;
29662;SDS011;16578;53.266;7.920;2022-12-10T08:28:00;65.55;;;35.15;;
29662;SDS011;16578;53.266;7.920;2022-12-10T08:30:27;60.70;;;34.75;;
29662;SDS011;16578;53.266;7.920;2022-12-10T08:32:53;57.10;;;32.53;;
29662;SDS011;16578;53.266;7.920;2022-12-10T08:35:19;57.35;;;31.73;;
29662;SDS011;16578;53.266;7.920;2022-12-10T08:37:44;63.72;;;32.10;;
29662;SDS011;16578;53.266;7.920;2022-12-10T08:40:10;60.83;;;35.03;;
29662;SDS011;16578;53.266;7.920;2022-12-10T08:42:36;56.65;;;32.40;;
29662;SDS011;16578;53.266;7.920;2022-12-10T08:45:01;63.65;;;33.63;;
29662;SDS011;16578;53.266;7.920;2022-12-10T08:47:27;59.88;;;33.40;;
29662;SDS011;16578;53.266;7.920;2022-12-10T08:49:53;59.47;;;36.33;;
29662;SDS011;16578;53.266;7.920;2022-12-10T08:52:18;62.38;;;34.80;;
29662;SDS011;16578;53.266;7.920;2022-12-10T08:54:43;62.47;;;34.90;;
29662;SDS011;16578;53.266;7.920;2022-12-10T08:57:09;66.18;;;37.13;;
29662;SDS011;16578;53.266;7.920;2022-12-10T08:59:34;58.83;;;33.03;;
29662;SDS011;16578;53.266;7.920;2022-12-10T09:02:00;61.25;;;34.30;;
29662;SDS011;16578;53.266;7.920;2022-12-10T09:04:26;65.85;;;36.53;;
29662;SDS011;16578;53.266;7.920;2022-12-10T09:06:51;61.67;;;36.60;;
29662;SDS011;16578;53.266;7.920;2022-12-10T09:09:17;60.85;;;34.10;;
29662;SDS011;16578;53.266;7.920;2022-12-10T09:11:43;57.70;;;32.45;;
29662;SDS011;16578;53.266;7.920;2022-12-10T09:14:10;57.83;;;33.23;;
29662;SDS011;16578;53.266;7.920;2022-12-10T09:16:36;65.32;;;36.08;;
29662;SDS011;16578;53.266;7.920;2022-12-10T09:19:03;66.80;;;36.07;;
29662;SDS011;16578;53.266;7.920;2022-12-10T09:21:29;64.15;;;34.10;;
29662;SDS011;16578;53.266;7.920;2022-12-10T09:23:55;63.78;;;34.53;;
29662;SDS011;16578;53.266;7.920;2022-12-10T09:26:21;55.78;;;30.95;;
29662;SDS011;16578;53.266;7.920;2022-12-10T09:28:47;62.30;;;33.00;;
29662;SDS011;16578;53.266;7.920;2022-12-10T09:31:14;60.33;;;33.13;;
29662;SDS011;16578;53.266;7.920;2022-12-10T09:33:42;63.80;;;33.78;;
29662;SDS011;16578;53.266;7.920;2022-12-10T09:36:09;61.92;;;32.72;;
29662;SDS011;16578;53.266;7.920;2022-12-10T09:38:36;61.38;;;32.63;;
29662;SDS011;16578;53.266;7.920;2022-12-10T09:41:05;56.42;;;31.92;;
29662;SDS011;16578;53.266;7.920;2022-12-10T09:48:58;57.50;;;31.40;;
29662;SDS011;16578;53.266;7.920;2022-12-10T09:51:28;57.65;;;31.83;;
29662;SDS011;16578;53.266;7.920;2022-12-10T09:53:57;63.08;;;33.67;;
29662;SDS011;16578;53.266;7.920;2022-12-10T09:56:31;60.42;;;34.50;;
29662;SDS011;16578;53.266;7.920;2022-12-10T09:59:06;62.17;;;35.88;;
29662;SDS011;16578;53.266;7.920;2022-12-10T10:01:42;61.28;;;33.35;;
29662;SDS011;16578;53.266;7.920;2022-12-10T10:04:09;56.45;;;32.17;;
29662;SDS011;16578;53.266;7.920;2022-12-10T10:06:35;58.50;;;33.45;;
29662;SDS011;16578;53.266;7.920;2022-12-10T10:09:01;59.55;;;33.63;;
29662;SDS011;16578;53.266;7.920;2022-12-10T10:11:29;62.88;;;35.30;;
29662;SDS011;16578;53.266;7.920;2022-12-10T10:14:00;67.20;;;36.88;;
29662;SDS011;16578;53.266;7.920;2022-12-10T10:16:35;66.40;;;39.25;;
29662;SDS011;16578;53.266;7.920;2022-12-10T10:21:57;54.55;;;29.90;;
29662;SDS011;16578;53.266;7.920;2022-12-10T10:24:33;58.20;;;34.80;;
29662;SDS011;16578;53.266;7.920;2022-12-10T10:27:08;55.27;;;30.13;;
29662;SDS011;16578;53.266;7.920;2022-12-10T10:29:39;64.20;;;35.90;;
29662;SDS011;16578;53.266;7.920;2022-12-10T10:34:51;59.17;;;33.58;;
29662;SDS011;16578;53.266;7.920;2022-12-10T10:37:20;61.03;;;34.83;;
29662;SDS011;16578;53.266;7.920;2022-12-10T10:40:04;58.58;;;32.70;;
29662;SDS011;16578;53.266;7.920;2022-12-10T10:42:37;56.10;;;33.95;;
29662;SDS011;16578;53.266;7.920;2022-12-10T10:45:06;57.55;;;36.17;;
29662;SDS011;16578;53.266;7.920;2022-12-10T10:48:03;56.92;;;32.97;;
29662;SDS011;16578;53.266;7.920;2022-12-10T10:51:24;58.10;;;34.47;;
29662;SDS011;16578;53.266;7.920;2022-12-10T10:53:40;60.67;;;33.45;;
29662;SDS011;16578;53.266;7.920;2022-12-10T10:56:09;57.78;;;33.65;;
29662;SDS011;16578;53.266;7.920;2022-12-10T10:58:55;56.53;;;31.92;;
29662;SDS011;16578;53.266;7.920;2022-12-10T11:01:25;61.13;;;33.80;;
29662;SDS011;16578;53.266;7.920;2022-12-10T11:04:07;57.13;;;32.25;;
29662;SDS011;16578;53.266;7.920;2022-12-10T11:06:33;58.25;;;35.72;;
29662;SDS011;16578;53.266;7.920;2022-12-10T11:08:59;59.08;;;35.20;;
29662;SDS011;16578;53.266;7.920;2022-12-10T11:14:14;52.42;;;30.92;;
29662;SDS011;16578;53.266;7.920;2022-12-10T11:16:49;48.22;;;29.27;;
29662;SDS011;16578;53.266;7.920;2022-12-10T11:19:19;52.97;;;33.13;;
29662;SDS011;16578;53.266;7.920;2022-12-10T11:21:47;53.55;;;32.15;;
29662;SDS011;16578;53.266;7.920;2022-12-10T11:24:14;52.17;;;31.75;;
29662;SDS011;16578;53.266;7.920;2022-12-10T11:31:46;51.45;;;29.50;;
29662;SDS011;16578;53.266;7.920;2022-12-10T11:36:57;50.50;;;32.63;;
29662;SDS011;16578;53.266;7.920;2022-12-10T11:46:17;49.85;;;30.83;;
29662;SDS011;16578;53.266;7.920;2022-12-10T11:48:55;51.80;;;31.23;;
29662;SDS011;16578;53.266;7.920;2022-12-10T11:56:58;52.28;;;30.75;;
29662;SDS011;16578;53.266;7.920;2022-12-10T12:00:00;47.13;;;28.33;;
29662;SDS011;16578;53.266;7.920;2022-12-10T12:06:01;46.25;;;27.95;;
29662;SDS011;16578;53.266;7.920;2022-12-10T12:08:59;48.28;;;29.60;;
29662;SDS011;16578;53.266;7.920;2022-12-10T12:11:44;48.95;;;29.98;;
29662;SDS011;16578;53.266;7.920;2022-12-10T12:14:22;49.17;;;29.30;;
29662;SDS011;16578;53.266;7.920;2022-12-10T12:16:52;46.45;;;28.70;;
29662;SDS011;16578;53.266;7.920;2022-12-10T12:19:28;47.10;;;29.00;;
29662;SDS011;16578;53.266;7.920;2022-12-10T12:22:04;51.55;;;30.35;;
29662;SDS011;16578;53.266;7.920;2022-12-10T12:24:38;48.47;;;29.73;;
29662;SDS011;16578;53.266;7.920;2022-12-10T12:27:14;53.30;;;32.03;;
29662;SDS011;16578;53.266;7.920;2022-12-10T12:29:51;49.05;;;30.13;;
29662;SDS011;16578;53.266;7.920;2022-12-10T12:35:46;49.70;;;32.47;;
29662;SDS011;16578;53.266;7.920;2022-12-10T12:38:59;52.35;;;31.73;;
29662;SDS011;16578;53.266;7.920;2022-12-10T12:41:40;46.58;;;28.42;;
29662;SDS011;16578;53.266;7.920;2022-12-10T12:46:54;49.53;;;28.80;;
29662;SDS011;16578;53.266;7.920;2022-12-10T12:49:34;47.22;;;30.10;;
29662;SDS011;16578;53.266;7.920;2022-12-10T12:55:13;46.63;;;28.40;;
29662;SDS011;16578;53.266;7.920;2022-12-10T12:57:49;51.53;;;33.15;;
29662;SDS011;16578;53.266;7.920;2022-12-10T13:00:28;50.95;;;32.65;;
29662;SDS011;16578;53.266;7.920;2022-12-10T13:06:14;48.60;;;31.30;;
29662;SDS011;16578;53.266;7.920;2022-12-10T13:08:41;51.60;;;29.85;;
29662;SDS011;16578;53.266;7.920;2022-12-10T13:13:41;51.00;;;32.42;;
29662;SDS011;16578;53.266;7.920;2022-12-10T13:21:56;52.05;;;33.58;;
29662;SDS011;16578;53.266;7.920;2022-12-10T13:34:43;51.08;;;30.13;;
29662;SDS011;16578;53.266;7.920;2022-12-10T13:37:14;48.78;;;31.00;;
29662;SDS011;16578;53.266;7.920;2022-12-10T13:39:47;46.58;;;29.67;;
29662;SDS011;16578;53.266;7.920;2022-12-10T13:42:22;45.05;;;28.52;;
29662;SDS011;16578;53.266;7.920;2022-12-10T13:47:46;48.20;;;29.23;;
29662;SDS011;16578;53.266;7.920;2022-12-10T13:50:38;47.53;;;30.50;;
29662;SDS011;16578;53.266;7.920;2022-12-10T13:55:54;49.88;;;32.35;;
29662;SDS011;16578;53.266;7.920;2022-12-10T14:04:06;49.85;;;31.52;;
29662;SDS011;16578;53.266;7.920;2022-12-10T14:06:54;51.13;;;30.45;;
29662;SDS011;16578;53.266;7.920;2022-12-10T14:11:52;47.88;;;29.95;;
29662;SDS011;16578;53.266;7.920;2022-12-10T14:14:32;50.30;;;30.80;;
29662;SDS011;16578;53.266;7.920;2022-12-10T14:17:02;46.60;;;29.40;;
29662;SDS011;16578;53.266;7.920;2022-12-10T14:19:30;48.97;;;30.25;;
29662;SDS011;16578;53.266;7.920;2022-12-10T14:24:36;43.47;;;26.10;;
29662;SDS011;16578;53.266;7.920;2022-12-10T14:27:14;48.53;;;31.30;;
29662;SDS011;16578;53.266;7.920;2022-12-10T14:29:49;47.17;;;31.05;;
29662;SDS011;16578;53.266;7.920;2022-12-10T14:32:17;52.28;;;32.58;;
29662;SDS011;16578;53.266;7.920;2022-12-10T14:34:52;52.55;;;33.00;;
29662;SDS011;16578;53.266;7.920;2022-12-10T14:37:22;48.60;;;31.33;;
29662;SDS011;16578;53.266;7.920;2022-12-10T14:39:53;52.45;;;34.13;;
29662;SDS011;16578;53.266;7.920;2022-12-10T14:42:19;57.00;;;36.55;;
29662;SDS011;16578;53.266;7.920;2022-12-10T14:44:46;56.22;;;35.13;;
29662;SDS011;16578;53.266;7.920;2022-12-10T14:47:19;49.40;;;32.53;;
29662;SDS011;16578;53.266;7.920;2022-12-10T14:49:49;53.60;;;32.70;;
29662;SDS011;16578;53.266;7.920;2022-12-10T14:52:21;57.70;;;36.42;;
29662;SDS011;16578;53.266;7.920;2022-12-10T14:54:49;53.78;;;34.67;;
29662;SDS011;16578;53.266;7.920;2022-12-10T14:57:21;49.00;;;32.90;;
29662;SDS011;16578;53.266;7.920;2022-12-10T15:02:36;55.20;;;36.00;;
29662;SDS011;16578;53.266;7.920;2022-12-10T15:05:03;56.67;;;34.90;;
29662;SDS011;16578;53.266;7.920;2022-12-10T15:07:57;52.42;;;33.92;;
29662;SDS011;16578;53.266;7.920;2022-12-10T15:13:01;56.42;;;34.30;;
29662;SDS011;16578;53.266;7.920;2022-12-10T15:15:29;49.83;;;32.35;;
29662;SDS011;16578;53.266;7.920;2022-12-10T15:20:26;51.45;;;32.72;;
29662;SDS011;16578;53.266;7.920;2022-12-10T15:23:35;51.33;;;34.22;;
29662;SDS011;16578;53.266;7.920;2022-12-10T15:28:26;52.00;;;33.03;;
29662;SDS011;16578;53.266;7.920;2022-12-10T15:31:35;51.10;;;32.72;;
29662;SDS011;16578;53.266;7.920;2022-12-10T15:33:50;54.75;;;32.17;;
29662;SDS011;16578;53.266;7.920;2022-12-10T15:36:30;48.75;;;30.35;;
29662;SDS011;16578;53.266;7.920;2022-12-10T15:41:57;45.15;;;31.38;;
29662;SDS011;16578;53.266;7.920;2022-12-10T15:44:31;51.42;;;30.35;;
29662;SDS011;16578;53.266;7.920;2022-12-10T15:49:49;50.35;;;31.67;;
29662;SDS011;16578;53.266;7.920;2022-12-10T15:52:21;51.80;;;31.30;;
29662;SDS011;16578;53.266;7.920;2022-12-10T15:54:49;46.88;;;29.83;;
29662;SDS011;16578;53.266;7.920;2022-12-10T15:57:22;51.33;;;31.05;;
29662;SDS011;16578;53.266;7.920;2022-12-10T15:59:50;50.00;;;33.10;;
29662;SDS011;16578;53.266;7.920;2022-12-10T16:05:12;51.78;;;32.58;;
29662;SDS011;16578;53.266;7.920;2022-12-10T16:07:40;48.38;;;31.08;;
29662;SDS011;16578;53.266;7.920;2022-12-10T16:10:07;45.38;;;28.98;;
29662;SDS011;16578;53.266;7.920;2022-12-10T16:12:35;50.60;;;32.25;;
29662;SDS011;16578;53.266;7.920;2022-12-10T16:15:02;44.90;;;29.63;;
29662;SDS011;16578;53.266;7.920;2022-12-10T16:17:29;45.58;;;29.08;;
29662;SDS011;16578;53.266;7.920;2022-12-10T16:19:59;42.90;;;27.63;;
29662;SDS011;16578;53.266;7.920;2022-12-10T16:22:44;46.75;;;28.55;;
29662;SDS011;16578;53.266;7.920;2022-12-10T16:25:10;45.30;;;28.58;;
29662;SDS011;16578;53.266;7.920;2022-12-10T16:27:37;51.30;;;32.00;;
29662;SDS011;16578;53.266;7.920;2022-12-10T16:30:15;49.63;;;30.23;;
29662;SDS011;16578;53.266;7.920;2022-12-10T16:32:44;45.90;;;31.10;;
29662;SDS011;16578;53.266;7.920;2022-12-10T16:35:11;48.10;;;32.90;;
29662;SDS011;16578;53.266;7.920;2022-12-10T16:37:38;47.22;;;31.52;;
29662;SDS011;16578;53.266;7.920;2022-12-10T16:40:08;50.65;;;33.17;;
29662;SDS011;16578;53.266;7.920;2022-12-10T16:42:34;52.17;;;33.25;;
29662;SDS011;16578;53.266;7.920;2022-12-10T16:45:00;49.28;;;31.52;;